aviador You're here:

LFPO Decoded Metar

PARIS ORLY in FRANCE
Report Time2018-07-20 20:00:00
UTC Time2018-07-20 20:13:26
Flight Rules vfr VFR
Wind290° at 07 kt
W.Decomp.*RWY 26: 6.0 kt HW 3.6 kt RCW
RWY 24: 4.4 kt HW 5.4 kt RCW
RWY 02: 0.1 kt HW 7 kt LCW
W.Rank290° ranks 14
Current wind is above 290° avg. (6.7)
Visibility9999 m
Phenomena:N/A
Clouds:Few 020 Hf
Scattered 063 Hf
Broken 093 Hf
Expected CloudBase > 1,200 ft AGL from Temp-Dew spread
Ceiling9,300 ft
Temp18°C (ISA +4)
Dew Point15°C (83% RH)
AAT17.1°C
QNH1013 hPa
Density Alt968 ft
Elevation315 ft
Report Wrong Elevation
Raw Report
METAR LFPO 202000Z 29007KT 9999 FEW020 SCT063 BKN093 18/15 Q1013 NOSIG=

Extra information for LFPO:More info

Metar Taf Metar & Taf Last 4 Metars F.Rules Stats Wind Profile Meteogram Temp Stats Airport Information Weather charts Add Link Nearby VenuesMetar ALERT Operation Metar Decoded Social comments